sensor_id;sensor_type;location;lat;lon;timestamp;temperature;humidity
22666;DHT22;11499;49.486;11.104;2023-03-29T00:01:18;5.50;65.10
22666;DHT22;11499;49.486;11.104;2023-03-29T00:06:39;5.50;65.20
22666;DHT22;11499;49.486;11.104;2023-03-29T00:09:06;5.60;65.10
22666;DHT22;11499;49.486;11.104;2023-03-29T00:11:33;5.70;65.00
22666;DHT22;11499;49.486;11.104;2023-03-29T00:13:59;5.70;65.00
22666;DHT22;11499;49.486;11.104;2023-03-29T00:16:25;5.60;65.10
22666;DHT22;11499;49.486;11.104;2023-03-29T00:18:50;5.70;65.20
22666;DHT22;11499;49.486;11.104;2023-03-29T00:21:16;5.70;64.90
22666;DHT22;11499;49.486;11.104;2023-03-29T00:23:41;5.70;64.90
22666;DHT22;11499;49.486;11.104;2023-03-29T00:26:07;5.80;65.10
22666;DHT22;11499;49.486;11.104;2023-03-29T00:32:09;5.80;65.20
22666;DHT22;11499;49.486;11.104;2023-03-29T00:34:35;6.00;65.20
22666;DHT22;11499;49.486;11.104;2023-03-29T00:37:01;5.90;64.70
22666;DHT22;11499;49.486;11.104;2023-03-29T00:39:27;5.90;65.40
22666;DHT22;11499;49.486;11.104;2023-03-29T00:41:54;6.10;66.10
22666;DHT22;11499;49.486;11.104;2023-03-29T00:44:55;5.90;66.00
22666;DHT22;11499;49.486;11.104;2023-03-29T00:47:39;5.90;66.20
22666;DHT22;11499;49.486;11.104;2023-03-29T00:50:19;6.00;66.10
22666;DHT22;11499;49.486;11.104;2023-03-29T00:55:31;5.90;66.30
22666;DHT22;11499;49.486;11.104;2023-03-29T00:59:49;5.90;66.40
22666;DHT22;11499;49.486;11.104;2023-03-29T01:02:16;5.90;66.80
22666;DHT22;11499;49.486;11.104;2023-03-29T01:04:57;5.90;66.60
22666;DHT22;11499;49.486;11.104;2023-03-29T01:08:02;5.80;66.60
22666;DHT22;11499;49.486;11.104;2023-03-29T01:13:05;5.90;67.00
22666;DHT22;11499;49.486;11.104;2023-03-29T01:15:32;5.90;67.00
22666;DHT22;11499;49.486;11.104;2023-03-29T01:17:57;5.90;67.20
22666;DHT22;11499;49.486;11.104;2023-03-29T01:20:48;6.00;67.60
22666;DHT22;11499;49.486;11.104;2023-03-29T01:28:10;5.90;68.00
22666;DHT22;11499;49.486;11.104;2023-03-29T01:30:52;5.90;68.40
22666;DHT22;11499;49.486;11.104;2023-03-29T01:33:40;5.90;68.70
22666;DHT22;11499;49.486;11.104;2023-03-29T01:36:17;5.90;68.40
22666;DHT22;11499;49.486;11.104;2023-03-29T01:38:59;5.90;68.90
22666;DHT22;11499;49.486;11.104;2023-03-29T01:41:50;5.90;69.20
22666;DHT22;11499;49.486;11.104;2023-03-29T01:47:10;5.90;70.40
22666;DHT22;11499;49.486;11.104;2023-03-29T01:49:41;5.90;71.20
22666;DHT22;11499;49.486;11.104;2023-03-29T01:55:14;5.90;71.50
22666;DHT22;11499;49.486;11.104;2023-03-29T01:57:43;5.90;71.90
22666;DHT22;11499;49.486;11.104;2023-03-29T02:00:18;5.90;72.30
22666;DHT22;11499;49.486;11.104;2023-03-29T02:02:45;5.90;73.30
22666;DHT22;11499;49.486;11.104;2023-03-29T02:05:13;5.90;73.80
22666;DHT22;11499;49.486;11.104;2023-03-29T02:07:41;5.90;74.20
22666;DHT22;11499;49.486;11.104;2023-03-29T02:10:09;5.90;74.30
22666;DHT22;11499;49.486;11.104;2023-03-29T02:12:36;5.90;75.30
22666;DHT22;11499;49.486;11.104;2023-03-29T02:15:09;6.00;75.80
22666;DHT22;11499;49.486;11.104;2023-03-29T02:17:35;6.00;76.60
22666;DHT22;11499;49.486;11.104;2023-03-29T02:23:06;5.80;78.00
22666;DHT22;11499;49.486;11.104;2023-03-29T02:25:34;5.80;78.40
22666;DHT22;11499;49.486;11.104;2023-03-29T02:28:01;5.80;79.20
22666;DHT22;11499;49.486;11.104;2023-03-29T02:30:32;5.80;80.80
22666;DHT22;11499;49.486;11.104;2023-03-29T02:33:15;5.80;81.10
22666;DHT22;11499;49.486;11.104;2023-03-29T02:35:51;5.80;82.70
22666;DHT22;11499;49.486;11.104;2023-03-29T02:38:19;5.80;83.10
22666;DHT22;11499;49.486;11.104;2023-03-29T02:40:46;5.80;84.10
22666;DHT22;11499;49.486;11.104;2023-03-29T02:43:13;5.80;84.80
22666;DHT22;11499;49.486;11.104;2023-03-29T02:45:40;5.80;85.50
22666;DHT22;11499;49.486;11.104;2023-03-29T02:50:40;5.70;85.80
22666;DHT22;11499;49.486;11.104;2023-03-29T02:53:21;5.80;87.20
22666;DHT22;11499;49.486;11.104;2023-03-29T02:55:48;5.80;87.90
22666;DHT22;11499;49.486;11.104;2023-03-29T02:58:14;5.80;89.20
22666;DHT22;11499;49.486;11.104;2023-03-29T03:00:47;5.90;89.80
22666;DHT22;11499;49.486;11.104;2023-03-29T03:03:13;5.80;90.00
22666;DHT22;11499;49.486;11.104;2023-03-29T03:05:42;5.90;90.30
22666;DHT22;11499;49.486;11.104;2023-03-29T03:08:08;5.80;90.50
22666;DHT22;11499;49.486;11.104;2023-03-29T03:10:35;5.80;90.70
22666;DHT22;11499;49.486;11.104;2023-03-29T03:13:01;5.70;90.90
22666;DHT22;11499;49.486;11.104;2023-03-29T03:15:27;5.70;91.50
22666;DHT22;11499;49.486;11.104;2023-03-29T03:17:52;5.70;91.70
22666;DHT22;11499;49.486;11.104;2023-03-29T03:23:47;5.70;92.40
22666;DHT22;11499;49.486;11.104;2023-03-29T03:26:13;5.70;92.30
22666;DHT22;11499;49.486;11.104;2023-03-29T03:28:40;5.60;92.70
22666;DHT22;11499;49.486;11.104;2023-03-29T03:31:06;5.60;93.00
22666;DHT22;11499;49.486;11.104;2023-03-29T03:33:32;5.60;93.30
22666;DHT22;11499;49.486;11.104;2023-03-29T03:35:58;5.60;93.70
22666;DHT22;11499;49.486;11.104;2023-03-29T03:38:31;5.60;94.10
22666;DHT22;11499;49.486;11.104;2023-03-29T03:41:00;5.50;94.40
22666;DHT22;11499;49.486;11.104;2023-03-29T03:43:27;5.50;94.80
22666;DHT22;11499;49.486;11.104;2023-03-29T03:45:53;5.60;95.00
22666;DHT22;11499;49.486;11.104;2023-03-29T03:48:19;5.50;95.20
22666;DHT22;11499;49.486;11.104;2023-03-29T03:50:56;5.60;95.50
22666;DHT22;11499;49.486;11.104;2023-03-29T03:54:54;5.60;95.80
22666;DHT22;11499;49.486;11.104;2023-03-29T03:57:20;5.60;96.10
22666;DHT22;11499;49.486;11.104;2023-03-29T03:59:45;5.50;96.30
22666;DHT22;11499;49.486;11.104;2023-03-29T04:02:11;5.50;96.60
22666;DHT22;11499;49.486;11.104;2023-03-29T04:04:37;5.50;96.70
22666;DHT22;11499;49.486;11.104;2023-03-29T04:07:03;5.60;96.90
22666;DHT22;11499;49.486;11.104;2023-03-29T04:09:29;5.50;97.10
22666;DHT22;11499;49.486;11.104;2023-03-29T04:11:56;5.50;97.50
22666;DHT22;11499;49.486;11.104;2023-03-29T04:14:21;5.40;97.50
22666;DHT22;11499;49.486;11.104;2023-03-29T04:16:47;5.40;97.80
22666;DHT22;11499;49.486;11.104;2023-03-29T04:22:00;5.40;98.10
22666;DHT22;11499;49.486;11.104;2023-03-29T04:24:25;5.40;98.50
22666;DHT22;11499;49.486;11.104;2023-03-29T04:26:51;5.40;98.70
22666;DHT22;11499;49.486;11.104;2023-03-29T04:29:16;5.40;98.90
22666;DHT22;11499;49.486;11.104;2023-03-29T04:31:42;5.40;99.00
22666;DHT22;11499;49.486;11.104;2023-03-29T04:34:07;5.50;99.10
22666;DHT22;11499;49.486;11.104;2023-03-29T04:36:33;5.40;99.10
22666;DHT22;11499;49.486;11.104;2023-03-29T04:38:58;5.50;99.20
22666;DHT22;11499;49.486;11.104;2023-03-29T04:41:26;5.50;99.30
22666;DHT22;11499;49.486;11.104;2023-03-29T04:43:51;5.50;99.30
22666;DHT22;11499;49.486;11.104;2023-03-29T04:49:01;5.40;99.50
22666;DHT22;11499;49.486;11.104;2023-03-29T04:51:27;5.50;99.70
22666;DHT22;11499;49.486;11.104;2023-03-29T04:53:52;5.30;99.70
22666;DHT22;11499;49.486;11.104;2023-03-29T04:56:18;5.30;99.90
22666;DHT22;11499;49.486;11.104;2023-03-29T04:58:43;5.30;99.90
22666;DHT22;11499;49.486;11.104;2023-03-29T05:01:09;5.30;99.90
22666;DHT22;11499;49.486;11.104;2023-03-29T05:03:35;5.30;99.90
22666;DHT22;11499;49.486;11.104;2023-03-29T05:06:05;5.30;99.90
22666;DHT22;11499;49.486;11.104;2023-03-29T05:08:33;5.30;99.90
22666;DHT22;11499;49.486;11.104;2023-03-29T05:10:59;5.30;99.90
22666;DHT22;11499;49.486;11.104;2023-03-29T05:16:02;5.40;99.90
22666;DHT22;11499;49.486;11.104;2023-03-29T05:18:29;5.40;99.90
22666;DHT22;11499;49.486;11.104;2023-03-29T05:20:56;5.40;99.90
22666;DHT22;11499;49.486;11.104;2023-03-29T05:23:22;5.50;99.90
22666;DHT22;11499;49.486;11.104;2023-03-29T05:25:49;5.50;99.80
22666;DHT22;11499;49.486;11.104;2023-03-29T05:28:15;5.50;99.80
22666;DHT22;11499;49.486;11.104;2023-03-29T05:30:41;5.60;99.60
22666;DHT22;11499;49.486;11.104;2023-03-29T05:33:07;5.60;99.40
22666;DHT22;11499;49.486;11.104;2023-03-29T05:35:33;5.60;99.50
22666;DHT22;11499;49.486;11.104;2023-03-29T05:38:00;5.60;99.60
22666;DHT22;11499;49.486;11.104;2023-03-29T05:42:59;5.70;99.50
22666;DHT22;11499;49.486;11.104;2023-03-29T05:45:26;5.80;99.30
22666;DHT22;11499;49.486;11.104;2023-03-29T05:47:54;5.90;99.20
22666;DHT22;11499;49.486;11.104;2023-03-29T05:50:19;6.00;99.10
22666;DHT22;11499;49.486;11.104;2023-03-29T05:52:45;6.00;98.50
22666;DHT22;11499;49.486;11.104;2023-03-29T05:55:12;6.00;98.50
22666;DHT22;11499;49.486;11.104;2023-03-29T05:57:38;6.00;98.30
22666;DHT22;11499;49.486;11.104;2023-03-29T06:00:05;6.10;98.10
22666;DHT22;11499;49.486;11.104;2023-03-29T06:02:44;6.20;98.00
22666;DHT22;11499;49.486;11.104;2023-03-29T06:05:09;6.10;98.00
22666;DHT22;11499;49.486;11.104;2023-03-29T06:10:20;6.20;97.90
22666;DHT22;11499;49.486;11.104;2023-03-29T06:12:48;6.50;97.50
22666;DHT22;11499;49.486;11.104;2023-03-29T06:15:14;6.60;97.70
22666;DHT22;11499;49.486;11.104;2023-03-29T06:17:40;6.80;97.30
22666;DHT22;11499;49.486;11.104;2023-03-29T06:20:07;7.00;97.00
22666;DHT22;11499;49.486;11.104;2023-03-29T06:22:38;7.10;96.80
22666;DHT22;11499;49.486;11.104;2023-03-29T06:25:05;7.10;96.30
22666;DHT22;11499;49.486;11.104;2023-03-29T06:27:32;7.20;96.30
22666;DHT22;11499;49.486;11.104;2023-03-29T06:30:00;7.20;96.20
22666;DHT22;11499;49.486;11.104;2023-03-29T06:32:26;7.10;96.50
22666;DHT22;11499;49.486;11.104;2023-03-29T06:37:51;7.10;96.20
22666;DHT22;11499;49.486;11.104;2023-03-29T06:40:19;7.10;96.40
22666;DHT22;11499;49.486;11.104;2023-03-29T06:42:48;7.20;96.30
22666;DHT22;11499;49.486;11.104;2023-03-29T06:45:15;7.20;96.00
22666;DHT22;11499;49.486;11.104;2023-03-29T06:47:41;7.20;96.10
22666;DHT22;11499;49.486;11.104;2023-03-29T06:50:07;7.20;96.10
22666;DHT22;11499;49.486;11.104;2023-03-29T06:52:32;7.20;96.40
22666;DHT22;11499;49.486;11.104;2023-03-29T06:54:58;7.40;96.20
22666;DHT22;11499;49.486;11.104;2023-03-29T06:57:26;7.50;95.70
22666;DHT22;11499;49.486;11.104;2023-03-29T06:59:52;7.60;95.70
22666;DHT22;11499;49.486;11.104;2023-03-29T07:04:54;7.70;95.30
22666;DHT22;11499;49.486;11.104;2023-03-29T07:07:20;8.00;95.20
22666;DHT22;11499;49.486;11.104;2023-03-29T07:09:46;8.10;95.30
22666;DHT22;11499;49.486;11.104;2023-03-29T07:12:20;8.20;94.90
22666;DHT22;11499;49.486;11.104;2023-03-29T07:14:47;8.30;94.80
22666;DHT22;11499;49.486;11.104;2023-03-29T07:17:13;8.40;94.40
22666;DHT22;11499;49.486;11.104;2023-03-29T07:19:39;8.50;94.00
22666;DHT22;11499;49.486;11.104;2023-03-29T07:22:04;8.40;94.40
22666;DHT22;11499;49.486;11.104;2023-03-29T07:24:30;8.70;94.20
22666;DHT22;11499;49.486;11.104;2023-03-29T07:26:55;8.60;94.00
22666;DHT22;11499;49.486;11.104;2023-03-29T07:32:10;8.80;94.00
22666;DHT22;11499;49.486;11.104;2023-03-29T07:34:36;9.10;93.50
22666;DHT22;11499;49.486;11.104;2023-03-29T07:37:01;9.10;93.50
22666;DHT22;11499;49.486;11.104;2023-03-29T07:39:27;9.30;92.80
22666;DHT22;11499;49.486;11.104;2023-03-29T07:41:56;9.80;92.40
22666;DHT22;11499;49.486;11.104;2023-03-29T07:44:22;9.80;91.90
22666;DHT22;11499;49.486;11.104;2023-03-29T07:46:47;10.00;91.50
22666;DHT22;11499;49.486;11.104;2023-03-29T07:49:13;10.40;90.90
22666;DHT22;11499;49.486;11.104;2023-03-29T07:51:39;10.60;90.30
22666;DHT22;11499;49.486;11.104;2023-03-29T07:54:05;10.70;90.00
22666;DHT22;11499;49.486;11.104;2023-03-29T07:59:15;10.80;90.10
22666;DHT22;11499;49.486;11.104;2023-03-29T08:01:41;10.90;89.50
22666;DHT22;11499;49.486;11.104;2023-03-29T08:04:06;11.20;87.60
22666;DHT22;11499;49.486;11.104;2023-03-29T08:06:32;11.40;87.20
22666;DHT22;11499;49.486;11.104;2023-03-29T08:08:58;11.30;86.60
22666;DHT22;11499;49.486;11.104;2023-03-29T08:11:24;11.20;86.60
22666;DHT22;11499;49.486;11.104;2023-03-29T08:13:50;11.20;85.60
22666;DHT22;11499;49.486;11.104;2023-03-29T08:16:16;11.00;86.20
22666;DHT22;11499;49.486;11.104;2023-03-29T08:18:41;10.80;86.70
22666;DHT22;11499;49.486;11.104;2023-03-29T08:21:07;10.90;86.60
22666;DHT22;11499;49.486;11.104;2023-03-29T08:26:13;10.90;86.40
22666;DHT22;11499;49.486;11.104;2023-03-29T08:28:40;11.10;86.90
22666;DHT22;11499;49.486;11.104;2023-03-29T08:31:07;11.50;85.60
22666;DHT22;11499;49.486;11.104;2023-03-29T08:33:34;11.40;85.60
22666;DHT22;11499;49.486;11.104;2023-03-29T08:36:00;11.60;85.10
22666;DHT22;11499;49.486;11.104;2023-03-29T08:38:25;12.00;84.30
22666;DHT22;11499;49.486;11.104;2023-03-29T08:40:51;11.90;83.60
22666;DHT22;11499;49.486;11.104;2023-03-29T08:43:35;12.30;83.70
22666;DHT22;11499;49.486;11.104;2023-03-29T08:49:02;12.40;81.70
22666;DHT22;11499;49.486;11.104;2023-03-29T08:55:47;13.00;79.50
22666;DHT22;11499;49.486;11.104;2023-03-29T08:58:16;13.30;78.30
22666;DHT22;11499;49.486;11.104;2023-03-29T09:00:46;13.40;78.00
22666;DHT22;11499;49.486;11.104;2023-03-29T09:03:20;13.50;76.50
22666;DHT22;11499;49.486;11.104;2023-03-29T09:05:48;13.60;77.30
22666;DHT22;11499;49.486;11.104;2023-03-29T09:08:16;13.90;77.70
22666;DHT22;11499;49.486;11.104;2023-03-29T09:10:58;14.40;76.60
22666;DHT22;11499;49.486;11.104;2023-03-29T09:22:21;14.80;73.90
22666;DHT22;11499;49.486;11.104;2023-03-29T09:24:56;14.90;72.30
22666;DHT22;11499;49.486;11.104;2023-03-29T09:27:43;15.10;72.20
22666;DHT22;11499;49.486;11.104;2023-03-29T09:30:20;15.30;71.00
22666;DHT22;11499;49.486;11.104;2023-03-29T09:33:01;15.10;71.20
22666;DHT22;11499;49.486;11.104;2023-03-29T09:35:44;15.20;70.90
22666;DHT22;11499;49.486;11.104;2023-03-29T09:38:13;15.00;71.00
22666;DHT22;11499;49.486;11.104;2023-03-29T09:40:46;15.40;69.70
22666;DHT22;11499;49.486;11.104;2023-03-29T09:45:57;15.60;67.40
22666;DHT22;11499;49.486;11.104;2023-03-29T09:48:28;14.90;66.30
22666;DHT22;11499;49.486;11.104;2023-03-29T09:50:56;14.90;67.80
22666;DHT22;11499;49.486;11.104;2023-03-29T09:53:22;15.20;66.30
22666;DHT22;11499;49.486;11.104;2023-03-29T09:55:49;15.20;66.20
22666;DHT22;11499;49.486;11.104;2023-03-29T09:58:23;15.80;65.50
22666;DHT22;11499;49.486;11.104;2023-03-29T10:00:49;15.90;64.10
22666;DHT22;11499;49.486;11.104;2023-03-29T10:03:38;15.90;62.80
22666;DHT22;11499;49.486;11.104;2023-03-29T10:06:05;14.40;64.20
22666;DHT22;11499;49.486;11.104;2023-03-29T10:08:39;13.50;64.70
22666;DHT22;11499;49.486;11.104;2023-03-29T10:13:47;13.00;65.20
22666;DHT22;11499;49.486;11.104;2023-03-29T10:16:24;13.10;67.40
22666;DHT22;11499;49.486;11.104;2023-03-29T10:18:50;12.90;67.50
22666;DHT22;11499;49.486;11.104;2023-03-29T10:21:17;13.00;67.30
22666;DHT22;11499;49.486;11.104;2023-03-29T10:23:47;13.70;67.20
22666;DHT22;11499;49.486;11.104;2023-03-29T10:26:24;14.30;65.10
22666;DHT22;11499;49.486;11.104;2023-03-29T10:28:53;14.30;65.10
22666;DHT22;11499;49.486;11.104;2023-03-29T10:31:21;14.20;65.70
22666;DHT22;11499;49.486;11.104;2023-03-29T10:33:56;14.10;66.20
22666;DHT22;11499;49.486;11.104;2023-03-29T10:36:24;13.90;65.90
22666;DHT22;11499;49.486;11.104;2023-03-29T10:41:16;14.40;66.10
22666;DHT22;11499;49.486;11.104;2023-03-29T10:43:45;15.60;64.40
22666;DHT22;11499;49.486;11.104;2023-03-29T10:46:21;15.70;63.90
22666;DHT22;11499;49.486;11.104;2023-03-29T10:48:55;14.70;64.30
22666;DHT22;11499;49.486;11.104;2023-03-29T10:51:22;14.20;65.10
22666;DHT22;11499;49.486;11.104;2023-03-29T10:53:48;14.60;65.60
22666;DHT22;11499;49.486;11.104;2023-03-29T10:56:44;14.60;64.90
22666;DHT22;11499;49.486;11.104;2023-03-29T10:59:25;15.20;64.50
22666;DHT22;11499;49.486;11.104;2023-03-29T11:12:48;13.80;64.00
22666;DHT22;11499;49.486;11.104;2023-03-29T11:18:29;13.70;65.70
22666;DHT22;11499;49.486;11.104;2023-03-29T11:21:23;14.30;65.60
22666;DHT22;11499;49.486;11.104;2023-03-29T11:28:53;14.30;65.30
22666;DHT22;11499;49.486;11.104;2023-03-29T11:42:52;14.80;63.50
22666;DHT22;11499;49.486;11.104;2023-03-29T11:45:27;15.30;63.30
22666;DHT22;11499;49.486;11.104;2023-03-29T11:47:55;15.20;63.00
22666;DHT22;11499;49.486;11.104;2023-03-29T11:50:42;15.00;64.50
22666;DHT22;11499;49.486;11.104;2023-03-29T11:53:16;14.70;64.80
22666;DHT22;11499;49.486;11.104;2023-03-29T11:55:43;14.50;65.90
22666;DHT22;11499;49.486;11.104;2023-03-29T12:00:39;15.10;66.30
22666;DHT22;11499;49.486;11.104;2023-03-29T12:08:32;17.20;63.60
22666;DHT22;11499;49.486;11.104;2023-03-29T12:13:50;17.10;60.10
22666;DHT22;11499;49.486;11.104;2023-03-29T12:16:43;17.40;62.20
22666;DHT22;11499;49.486;11.104;2023-03-29T12:19:31;18.10;61.60
22666;DHT22;11499;49.486;11.104;2023-03-29T12:21:58;17.40;61.50
22666;DHT22;11499;49.486;11.104;2023-03-29T12:27:27;16.90;62.00
22666;DHT22;11499;49.486;11.104;2023-03-29T12:33:20;18.00;61.20
22666;DHT22;11499;49.486;11.104;2023-03-29T12:38:26;16.60;61.70
22666;DHT22;11499;49.486;11.104;2023-03-29T12:40:57;15.80;62.10
22666;DHT22;11499;49.486;11.104;2023-03-29T12:43:38;16.30;64.10
22666;DHT22;11499;49.486;11.104;2023-03-29T12:48:39;18.30;61.50
22666;DHT22;11499;49.486;11.104;2023-03-29T12:51:14;18.90;59.90
22666;DHT22;11499;49.486;11.104;2023-03-29T12:57:23;18.70;60.80
22666;DHT22;11499;49.486;11.104;2023-03-29T12:59:47;17.40;62.20
22666;DHT22;11499;49.486;11.104;2023-03-29T13:07:26;18.60;62.10
22666;DHT22;11499;49.486;11.104;2023-03-29T13:09:57;19.20;61.20
22666;DHT22;11499;49.486;11.104;2023-03-29T13:12:38;18.90;61.10
22666;DHT22;11499;49.486;11.104;2023-03-29T13:15:06;18.20;61.80
22666;DHT22;11499;49.486;11.104;2023-03-29T13:18:30;17.50;63.60
22666;DHT22;11499;49.486;11.104;2023-03-29T13:25:25;16.80;65.10
22666;DHT22;11499;49.486;11.104;2023-03-29T13:31:28;17.80;66.40
22666;DHT22;11499;49.486;11.104;2023-03-29T13:39:51;16.60;67.40
22666;DHT22;11499;49.486;11.104;2023-03-29T13:50:57;15.10;71.60
22666;DHT22;11499;49.486;11.104;2023-03-29T13:54:06;14.60;72.00
22666;DHT22;11499;49.486;11.104;2023-03-29T13:56:29;15.00;72.80
22666;DHT22;11499;49.486;11.104;2023-03-29T13:59:14;15.40;71.00
22666;DHT22;11499;49.486;11.104;2023-03-29T14:01:46;15.90;70.50
22666;DHT22;11499;49.486;11.104;2023-03-29T14:04:16;16.00;69.70
22666;DHT22;11499;49.486;11.104;2023-03-29T14:06:49;16.90;69.30
22666;DHT22;11499;49.486;11.104;2023-03-29T14:09:17;17.30;68.40
22666;DHT22;11499;49.486;11.104;2023-03-29T14:13:22;16.60;69.10
22666;DHT22;11499;49.486;11.104;2023-03-29T14:15:58;16.30;69.10
22666;DHT22;11499;49.486;11.104;2023-03-29T14:18:31;15.90;68.00
22666;DHT22;11499;49.486;11.104;2023-03-29T14:20:58;15.50;69.30
22666;DHT22;11499;49.486;11.104;2023-03-29T14:23:27;15.60;69.70
22666;DHT22;11499;49.486;11.104;2023-03-29T14:26:04;15.80;69.00
22666;DHT22;11499;49.486;11.104;2023-03-29T14:28:31;15.40;69.70
22666;DHT22;11499;49.486;11.104;2023-03-29T14:30:57;15.20;70.00
22666;DHT22;11499;49.486;11.104;2023-03-29T14:33:28;15.10;69.80
22666;DHT22;11499;49.486;11.104;2023-03-29T14:38:10;15.20;70.80
22666;DHT22;11499;49.486;11.104;2023-03-29T14:40:37;15.00;70.70
22666;DHT22;11499;49.486;11.104;2023-03-29T14:43:05;15.60;70.90
22666;DHT22;11499;49.486;11.104;2023-03-29T14:45:32;16.30;70.10
22666;DHT22;11499;49.486;11.104;2023-03-29T14:47:58;16.90;69.00
22666;DHT22;11499;49.486;11.104;2023-03-29T14:50:27;16.90;66.90
22666;DHT22;11499;49.486;11.104;2023-03-29T14:52:55;16.10;67.40
22666;DHT22;11499;49.486;11.104;2023-03-29T14:55:22;15.80;68.00
22666;DHT22;11499;49.486;11.104;2023-03-29T14:57:50;15.60;69.90
22666;DHT22;11499;49.486;11.104;2023-03-29T15:00:24;15.50;69.10
22666;DHT22;11499;49.486;11.104;2023-03-29T15:04:33;15.40;69.30
22666;DHT22;11499;49.486;11.104;2023-03-29T15:07:00;15.10;70.20
22666;DHT22;11499;49.486;11.104;2023-03-29T15:09:30;15.10;69.70
22666;DHT22;11499;49.486;11.104;2023-03-29T15:11:58;15.10;69.60
22666;DHT22;11499;49.486;11.104;2023-03-29T15:14:30;15.10;69.10
22666;DHT22;11499;49.486;11.104;2023-03-29T15:17:23;15.00;69.10
22666;DHT22;11499;49.486;11.104;2023-03-29T15:19:49;15.00;69.70
22666;DHT22;11499;49.486;11.104;2023-03-29T15:22:15;15.00;69.30
22666;DHT22;11499;49.486;11.104;2023-03-29T15:24:43;15.10;69.70
22666;DHT22;11499;49.486;11.104;2023-03-29T15:33:19;15.00;69.40
22666;DHT22;11499;49.486;11.104;2023-03-29T15:35:51;14.90;70.50
22666;DHT22;11499;49.486;11.104;2023-03-29T15:38:18;15.00;70.30
22666;DHT22;11499;49.486;11.104;2023-03-29T15:40:45;15.20;69.90
22666;DHT22;11499;49.486;11.104;2023-03-29T15:43:11;15.10;70.80
22666;DHT22;11499;49.486;11.104;2023-03-29T15:45:37;15.20;70.30
22666;DHT22;11499;49.486;11.104;2023-03-29T15:48:24;15.10;70.60
22666;DHT22;11499;49.486;11.104;2023-03-29T15:50:50;15.20;69.90
22666;DHT22;11499;49.486;11.104;2023-03-29T15:55:53;15.10;70.00
22666;DHT22;11499;49.486;11.104;2023-03-29T15:58:23;15.20;69.90
22666;DHT22;11499;49.486;11.104;2023-03-29T16:01:11;15.00;70.40
22666;DHT22;11499;49.486;11.104;2023-03-29T16:03:40;15.00;70.40
22666;DHT22;11499;49.486;11.104;2023-03-29T16:06:10;15.00;70.90
22666;DHT22;11499;49.486;11.104;2023-03-29T16:08:35;15.10;70.90
22666;DHT22;11499;49.486;11.104;2023-03-29T16:11:01;15.30;70.80
22666;DHT22;11499;49.486;11.104;2023-03-29T16:13:26;15.00;71.00
22666;DHT22;11499;49.486;11.104;2023-03-29T16:15:52;15.10;71.90
22666;DHT22;11499;49.486;11.104;2023-03-29T16:20:52;15.00;70.60
22666;DHT22;11499;49.486;11.104;2023-03-29T16:23:17;14.90;71.60
22666;DHT22;11499;49.486;11.104;2023-03-29T16:25:43;15.00;71.10
22666;DHT22;11499;49.486;11.104;2023-03-29T16:28:08;14.90;71.40
22666;DHT22;11499;49.486;11.104;2023-03-29T16:30:35;14.90;72.00
22666;DHT22;11499;49.486;11.104;2023-03-29T16:33:02;14.90;72.10
22666;DHT22;11499;49.486;11.104;2023-03-29T16:35:31;14.80;71.80
22666;DHT22;11499;49.486;11.104;2023-03-29T16:37:57;14.90;71.90
22666;DHT22;11499;49.486;11.104;2023-03-29T16:40:23;14.80;72.00
22666;DHT22;11499;49.486;11.104;2023-03-29T16:45:26;14.70;72.20
22666;DHT22;11499;49.486;11.104;2023-03-29T16:47:52;14.80;72.50
22666;DHT22;11499;49.486;11.104;2023-03-29T16:50:19;14.70;72.40
22666;DHT22;11499;49.486;11.104;2023-03-29T16:52:46;14.80;72.70
22666;DHT22;11499;49.486;11.104;2023-03-29T16:55:16;15.00;73.30
22666;DHT22;11499;49.486;11.104;2023-03-29T16:57:44;14.90;72.70
22666;DHT22;11499;49.486;11.104;2023-03-29T17:00:11;15.00;73.50
22666;DHT22;11499;49.486;11.104;2023-03-29T17:02:43;15.00;73.80
22666;DHT22;11499;49.486;11.104;2023-03-29T17:05:10;14.90;73.90
22666;DHT22;11499;49.486;11.104;2023-03-29T17:10:26;14.80;73.70
22666;DHT22;11499;49.486;11.104;2023-03-29T17:12:51;14.70;73.70
22666;DHT22;11499;49.486;11.104;2023-03-29T17:15:17;14.60;73.60
22666;DHT22;11499;49.486;11.104;2023-03-29T17:17:42;14.50;73.70
22666;DHT22;11499;49.486;11.104;2023-03-29T17:20:10;14.50;74.20
22666;DHT22;11499;49.486;11.104;2023-03-29T17:22:39;14.40;74.00
22666;DHT22;11499;49.486;11.104;2023-03-29T17:25:05;14.30;73.70
22666;DHT22;11499;49.486;11.104;2023-03-29T17:27:32;14.20;73.80
22666;DHT22;11499;49.486;11.104;2023-03-29T17:29:59;14.20;74.00
22666;DHT22;11499;49.486;11.104;2023-03-29T17:32:24;14.10;74.20
22666;DHT22;11499;49.486;11.104;2023-03-29T17:36:18;14.10;74.40
22666;DHT22;11499;49.486;11.104;2023-03-29T17:38:48;14.00;74.40
22666;DHT22;11499;49.486;11.104;2023-03-29T17:41:15;13.90;74.70
22666;DHT22;11499;49.486;11.104;2023-03-29T17:43:41;14.10;75.10
22666;DHT22;11499;49.486;11.104;2023-03-29T17:46:06;13.80;74.70
22666;DHT22;11499;49.486;11.104;2023-03-29T17:48:32;13.80;74.90
22666;DHT22;11499;49.486;11.104;2023-03-29T17:50:57;13.80;75.30
22666;DHT22;11499;49.486;11.104;2023-03-29T17:53:23;13.70;75.30
22666;DHT22;11499;49.486;11.104;2023-03-29T17:55:49;13.70;75.30
22666;DHT22;11499;49.486;11.104;2023-03-29T17:58:15;13.60;75.50
22666;DHT22;11499;49.486;11.104;2023-03-29T18:03:22;13.60;75.60
22666;DHT22;11499;49.486;11.104;2023-03-29T18:05:48;13.60;76.40
22666;DHT22;11499;49.486;11.104;2023-03-29T18:08:13;13.60;76.50
22666;DHT22;11499;49.486;11.104;2023-03-29T18:10:39;13.60;76.10
22666;DHT22;11499;49.486;11.104;2023-03-29T18:13:05;13.60;76.20
22666;DHT22;11499;49.486;11.104;2023-03-29T18:15:31;13.60;76.30
22666;DHT22;11499;49.486;11.104;2023-03-29T18:17:56;13.50;76.30
22666;DHT22;11499;49.486;11.104;2023-03-29T18:20:22;13.50;76.60
22666;DHT22;11499;49.486;11.104;2023-03-29T18:22:47;13.50;77.00
22666;DHT22;11499;49.486;11.104;2023-03-29T18:25:13;13.50;77.30
22666;DHT22;11499;49.486;11.104;2023-03-29T18:30:20;13.50;77.40
22666;DHT22;11499;49.486;11.104;2023-03-29T18:32:45;13.40;77.40
22666;DHT22;11499;49.486;11.104;2023-03-29T18:35:11;13.40;77.60
22666;DHT22;11499;49.486;11.104;2023-03-29T18:37:37;13.50;78.00
22666;DHT22;11499;49.486;11.104;2023-03-29T18:40:02;13.40;77.80
22666;DHT22;11499;49.486;11.104;2023-03-29T18:42:32;13.50;78.00
22666;DHT22;11499;49.486;11.104;2023-03-29T18:44:57;13.50;78.70
22666;DHT22;11499;49.486;11.104;2023-03-29T18:47:23;13.50;78.30
22666;DHT22;11499;49.486;11.104;2023-03-29T18:49:49;13.50;78.50
22666;DHT22;11499;49.486;11.104;2023-03-29T18:52:15;13.50;78.60
22666;DHT22;11499;49.486;11.104;2023-03-29T18:57:02;13.50;78.50